createdAt,value
2019-02-05T00:01:28.217Z,45.20
2019-02-05T00:04:01.659Z,46.95
2019-02-05T00:06:34.925Z,47.80
2019-02-05T00:09:14.394Z,46.93
2019-02-05T00:11:50.521Z,47.73
2019-02-05T00:14:23.744Z,45.37
2019-02-05T00:16:59.008Z,54.35
2019-02-05T00:19:34.954Z,53.13
2019-02-05T00:22:09.057Z,54.23
2019-02-05T00:24:43.129Z,56.37
2019-02-05T00:27:18.206Z,57.38
2019-02-05T00:29:52.442Z,56.70
2019-02-05T00:32:25.421Z,65.27
2019-02-05T00:34:58.565Z,64.70
2019-02-05T00:37:33.570Z,60.70
2019-02-05T00:40:07.903Z,70.12
2019-02-05T00:42:42.370Z,62.30
2019-02-05T00:45:18.308Z,65.33
2019-02-05T00:47:52.514Z,75.93
2019-02-05T00:50:26.079Z,61.10
2019-02-05T00:53:00.303Z,73.42
2019-02-05T00:55:33.357Z,66.27
2019-02-05T00:58:06.723Z,75.83
2019-02-05T01:00:41.857Z,80.50
2019-02-05T01:03:15.080Z,76.62
2019-02-05T01:05:48.310Z,75.00
2019-02-05T01:08:23.188Z,79.87
2019-02-05T01:10:57.674Z,71.20
2019-02-05T01:13:32.057Z,75.15
2019-02-05T01:16:06.089Z,77.50
2019-02-05T01:18:39.778Z,81.90
2019-02-05T01:21:13.405Z,71.13
2019-02-05T01:23:46.585Z,80.23
2019-02-05T01:26:28.890Z,94.60
2019-02-05T01:28:54.559Z,80.20
2019-02-05T01:31:29.641Z,76.10
2019-02-05T01:34:04.127Z,79.85
2019-02-05T01:36:39.300Z,82.10
2019-02-05T01:39:12.509Z,84.07
2019-02-05T01:41:46.792Z,87.97
2019-02-05T01:44:20.026Z,101.10
2019-02-05T01:46:58.305Z,75.83
2019-02-05T01:49:31.385Z,51.63
2019-02-05T01:52:04.856Z,39.53
2019-02-05T01:54:37.916Z,24.27
2019-02-05T01:57:12.156Z,21.40
2019-02-05T01:59:45.273Z,17.77
2019-02-05T02:02:19.824Z,17.20
2019-02-05T02:04:52.960Z,33.20
2019-02-05T02:07:26.382Z,43.27
2019-02-05T02:09:59.629Z,40.15
2019-02-05T02:12:33.466Z,24.00
2019-02-05T02:15:06.878Z,24.90
2019-02-05T02:17:41.923Z,27.63
2019-02-05T02:20:18.502Z,24.07
2019-02-05T02:22:51.885Z,36.20
2019-02-05T02:25:25.055Z,33.07
2019-02-05T02:27:58.254Z,41.13
2019-02-05T02:30:38.987Z,39.87
2019-02-05T02:33:12.141Z,35.37
2019-02-05T02:35:47.776Z,39.07
2019-02-05T02:38:21.187Z,130.73
2019-02-05T02:40:54.313Z,142.87
2019-02-05T02:43:27.494Z,128.17
2019-02-05T02:46:04.813Z,50.95
2019-02-05T02:48:37.780Z,30.17
2019-02-05T02:51:10.940Z,33.40
2019-02-05T02:53:45.021Z,32.33
2019-02-05T02:56:27.297Z,34.08
2019-02-05T02:59:01.392Z,29.87
2019-02-05T03:01:35.073Z,26.60
2019-02-05T03:04:08.861Z,27.30
2019-02-05T03:06:42.411Z,27.70
2019-02-05T03:09:16.423Z,28.70
2019-02-05T03:11:49.752Z,33.37
2019-02-05T03:14:22.838Z,27.27
2019-02-05T03:16:56.100Z,22.17
2019-02-05T03:19:29.513Z,24.80
2019-02-05T03:22:02.645Z,20.97
2019-02-05T03:24:35.755Z,21.37
2019-02-05T03:27:17.419Z,18.10
2019-02-05T03:29:44.739Z,19.40
2019-02-05T03:32:19.102Z,21.10
2019-02-05T03:34:53.714Z,21.43
2019-02-05T03:37:26.808Z,19.27
2019-02-05T03:40:01.498Z,22.90
2019-02-05T03:42:34.630Z,23.00
2019-02-05T03:45:08.188Z,21.63
2019-02-05T03:47:42.551Z,28.23
2019-02-05T03:50:17.887Z,30.03
2019-02-05T03:52:57.971Z,22.40
2019-02-05T03:56:06.595Z,23.73
2019-02-05T03:59:15.690Z,20.33
2019-02-05T04:02:34.486Z,19.63
2019-02-05T04:05:33.719Z,17.90
2019-02-05T04:08:49.591Z,21.57
2019-02-05T04:11:50.129Z,20.80
2019-02-05T04:14:48.462Z,23.37
2019-02-05T04:18:04.891Z,22.90
2019-02-05T04:21:35.066Z,23.77
2019-02-05T04:24:50.972Z,19.30
2019-02-05T04:27:47.420Z,26.97
2019-02-05T04:30:46.355Z,24.23
2019-02-05T04:33:50.451Z,20.03
2019-02-05T04:36:57.266Z,19.53
2019-02-05T04:40:31.020Z,20.33
2019-02-05T04:43:39.102Z,23.47
2019-02-05T04:46:39.834Z,24.03
2019-02-05T04:49:46.188Z,25.97
2019-02-05T04:52:40.301Z,25.23
2019-02-05T04:55:54.720Z,29.57
2019-02-05T04:59:11.629Z,31.20
2019-02-05T05:02:08.517Z,36.93
2019-02-05T05:05:20.520Z,41.43
2019-02-05T05:08:40.799Z,35.77
2019-02-05T05:11:14.022Z,33.70
2019-02-05T05:13:47.103Z,37.27
2019-02-05T05:16:21.874Z,34.00
2019-02-05T05:18:56.277Z,20.30
2019-02-05T05:21:29.530Z,20.40
2019-02-05T05:24:04.079Z,22.57
2019-02-05T05:26:37.473Z,17.97
2019-02-05T05:29:11.495Z,16.87
2019-02-05T05:31:44.557Z,16.07
2019-02-05T05:34:18.823Z,15.93
2019-02-05T05:36:56.467Z,15.60
2019-02-05T05:39:30.779Z,16.70
2019-02-05T05:42:06.572Z,16.60
2019-02-05T05:44:40.939Z,17.03
2019-02-05T05:47:15.136Z,15.43
2019-02-05T05:49:49.589Z,17.93
2019-02-05T05:52:22.847Z,18.43
2019-02-05T05:54:55.915Z,19.90
2019-02-05T05:57:31.590Z,16.50
2019-02-05T06:00:08.032Z,15.23
2019-02-05T06:02:42.504Z,16.03
2019-02-05T06:05:17.716Z,18.43
2019-02-05T06:07:51.841Z,21.03
2019-02-05T06:10:26.666Z,24.73
2019-02-05T06:13:00.964Z,23.80
2019-02-05T06:15:41.840Z,27.65
2019-02-05T06:18:15.321Z,28.00
2019-02-05T06:20:48.818Z,27.63
2019-02-05T06:23:22.522Z,26.20
2019-02-05T06:26:01.502Z,26.57
2019-02-05T06:28:35.105Z,23.17
2019-02-05T06:31:10.327Z,22.10
2019-02-05T06:33:43.942Z,24.27
2019-02-05T06:36:18.831Z,21.20
2019-02-05T06:38:54.480Z,24.27
2019-02-05T06:41:28.293Z,24.37
2019-02-05T06:44:02.777Z,26.47
2019-02-05T06:46:36.246Z,28.00
2019-02-05T06:49:12.167Z,28.07
2019-02-05T06:51:47.414Z,32.20
2019-02-05T06:54:22.609Z,28.90
2019-02-05T06:56:57.233Z,31.80
2019-02-05T06:59:30.753Z,31.37
2019-02-05T07:02:04.496Z,27.17
2019-02-05T07:04:39.947Z,25.00
2019-02-05T07:07:15.577Z,18.67
2019-02-05T07:09:50.067Z,15.87
2019-02-05T07:12:24.607Z,18.25
2019-02-05T07:14:59.302Z,20.03
2019-02-05T07:17:49.375Z,15.73
2019-02-05T07:20:16.487Z,21.47
2019-02-05T07:22:55.391Z,26.73
2019-02-05T07:25:28.999Z,28.80
2019-02-05T07:28:02.719Z,35.03
2019-02-05T07:30:36.342Z,36.53
2019-02-05T07:33:10.366Z,41.10
2019-02-05T07:35:46.295Z,44.67
2019-02-05T07:38:20.084Z,40.10
2019-02-05T07:40:53.703Z,38.10
2019-02-05T07:43:27.157Z,40.83
2019-02-05T07:46:08.237Z,52.08
2019-02-05T07:48:43.004Z,52.27
2019-02-05T07:51:17.643Z,39.50
2019-02-05T07:53:50.926Z,37.30
2019-02-05T07:56:27.949Z,40.67
2019-02-05T07:59:09.913Z,32.90
2019-02-05T08:01:37.757Z,35.70
2019-02-05T08:04:11.686Z,30.63
2019-02-05T08:06:46.094Z,28.53
2019-02-05T08:09:19.132Z,27.33
2019-02-05T08:11:52.399Z,22.93
2019-02-05T08:14:25.874Z,27.90
2019-02-05T08:17:01.331Z,34.17
2019-02-05T08:19:34.430Z,23.70
2019-02-05T08:22:07.660Z,26.00
2019-02-05T08:24:42.542Z,27.93
2019-02-05T08:27:18.301Z,26.70
2019-02-05T08:29:51.324Z,22.20
2019-02-05T08:32:25.884Z,26.30
2019-02-05T08:35:00.606Z,22.90
2019-02-05T08:37:33.766Z,21.77
2019-02-05T08:40:08.607Z,19.63
2019-02-05T08:42:41.674Z,20.03
2019-02-05T08:45:17.649Z,22.58
2019-02-05T08:47:52.154Z,20.63
2019-02-05T08:50:28.365Z,22.70
2019-02-05T08:53:02.751Z,20.73
2019-02-05T08:55:36.099Z,20.00
2019-02-05T08:58:11.334Z,20.57
2019-02-05T09:00:45.642Z,24.27
2019-02-05T09:03:20.750Z,21.00
2019-02-05T09:05:55.176Z,18.23
2019-02-05T09:08:30.684Z,21.55
2019-02-05T09:11:05.279Z,25.00
2019-02-05T09:13:39.706Z,22.60
2019-02-05T09:16:12.845Z,20.47
2019-02-05T09:18:45.912Z,20.00
2019-02-05T09:21:20.575Z,20.23
2019-02-05T09:23:55.938Z,25.07
2019-02-05T09:26:31.095Z,27.00
2019-02-05T09:29:04.111Z,25.67
2019-02-05T09:31:37.416Z,22.80
2019-02-05T09:34:10.371Z,23.27
2019-02-05T09:36:45.505Z,22.23
2019-02-05T09:39:18.630Z,22.53
2019-02-05T09:41:52.428Z,21.37
2019-02-05T09:44:25.375Z,22.30
2019-02-05T09:47:00.166Z,20.23
2019-02-05T09:49:35.386Z,21.53
2019-02-05T09:52:10.128Z,18.93
2019-02-05T09:54:43.302Z,21.05
2019-02-05T09:57:17.594Z,25.40
2019-02-05T09:59:50.827Z,22.53
2019-02-05T10:02:25.956Z,30.83
2019-02-05T10:05:00.830Z,22.23
2019-02-05T10:07:41.316Z,19.93
2019-02-05T10:10:17.481Z,21.20
2019-02-05T10:12:53.869Z,19.83
2019-02-05T10:15:31.150Z,23.83
2019-02-05T10:18:06.981Z,28.83
2019-02-05T10:20:40.073Z,23.43
2019-02-05T10:23:14.930Z,23.23
2019-02-05T10:25:51.246Z,26.33
2019-02-05T10:28:24.350Z,25.13
2019-02-05T10:30:59.206Z,27.90
2019-02-05T10:33:32.471Z,25.17
2019-02-05T10:36:06.344Z,20.30
2019-02-05T10:38:40.714Z,20.23
2019-02-05T10:41:15.718Z,29.48
2019-02-05T10:43:52.312Z,35.17
2019-02-05T10:46:27.605Z,29.77
2019-02-05T10:49:03.277Z,33.40
2019-02-05T10:51:37.136Z,28.83
2019-02-05T10:54:10.285Z,29.43
2019-02-05T10:56:45.413Z,37.67
2019-02-05T10:59:18.613Z,30.27
2019-02-05T11:01:51.782Z,32.90
2019-02-05T11:04:24.948Z,28.93
2019-02-05T11:06:58.095Z,27.10
2019-02-05T11:09:31.278Z,28.00
2019-02-05T11:12:05.941Z,22.37
2019-02-05T11:14:39.147Z,23.40
2019-02-05T11:17:14.475Z,27.60
2019-02-05T11:19:48.731Z,28.70
2019-02-05T11:22:25.812Z,24.30
2019-02-05T11:24:58.962Z,24.67
2019-02-05T11:27:32.190Z,21.87
2019-02-05T11:30:05.301Z,35.20
2019-02-05T11:32:38.226Z,22.17
2019-02-05T11:35:12.228Z,31.37
2019-02-05T11:37:45.335Z,34.60
2019-02-05T11:40:27.718Z,33.57
2019-02-05T11:43:01.030Z,30.57
2019-02-05T11:45:43.594Z,34.63
2019-02-05T11:48:19.508Z,36.60
2019-02-05T11:51:03.389Z,49.43
2019-02-05T11:54:16.754Z,33.97
2019-02-05T11:58:06.355Z,31.57
2019-02-05T12:01:16.149Z,28.47
2019-02-05T12:03:58.087Z,35.17
2019-02-05T12:06:52.156Z,26.70
2019-02-05T12:09:29.177Z,40.70
2019-02-05T12:12:24.108Z,36.83
2019-02-05T12:18:36.837Z,35.63
2019-02-05T12:24:39.105Z,33.38
2019-02-05T12:27:22.819Z,36.70
2019-02-05T12:29:51.630Z,32.60
2019-02-05T12:32:26.300Z,35.50
2019-02-05T12:35:02.257Z,38.13
2019-02-05T12:37:35.606Z,40.73
2019-02-05T12:41:21.011Z,34.60
2019-02-05T12:48:07.676Z,41.23
2019-02-05T12:51:25.722Z,30.90
2019-02-05T12:54:38.913Z,25.40
2019-02-05T12:57:13.319Z,44.10
2019-02-05T13:02:56.814Z,24.40
2019-02-05T13:05:30.048Z,30.40
2019-02-05T13:08:05.407Z,34.60
2019-02-05T13:10:46.185Z,25.77
2019-02-05T13:13:19.876Z,22.87
2019-02-05T13:16:01.953Z,27.30
2019-02-05T13:18:34.831Z,26.70
2019-02-05T13:21:07.758Z,31.67
2019-02-05T13:23:40.971Z,27.87
2019-02-05T13:26:15.684Z,23.83
2019-02-05T13:28:50.722Z,31.43
2019-02-05T13:31:23.794Z,27.00
2019-02-05T13:33:57.227Z,24.50
2019-02-05T13:36:35.098Z,27.90
2019-02-05T13:39:13.579Z,26.80
2019-02-05T13:41:47.110Z,27.10
2019-02-05T13:44:20.039Z,25.47
2019-02-05T13:46:59.521Z,31.57
2019-02-05T13:49:35.203Z,29.87
2019-02-05T13:52:08.555Z,29.43
2019-02-05T13:54:44.851Z,24.70
2019-02-05T13:58:01.064Z,29.00
2019-02-05T14:00:41.757Z,37.83
2019-02-05T14:03:18.127Z,23.47
2019-02-05T14:05:51.291Z,21.70
2019-02-05T14:08:25.169Z,38.90
2019-02-05T14:11:00.247Z,28.10
2019-02-05T14:13:36.330Z,30.00
2019-02-05T14:16:13.156Z,40.43
2019-02-05T14:18:54.925Z,30.30
2019-02-05T14:21:22.411Z,27.42
2019-02-05T14:23:56.564Z,28.40
2019-02-05T14:26:29.522Z,24.57
2019-02-05T14:29:05.711Z,27.93
2019-02-05T14:31:54.294Z,38.37
2019-02-05T14:34:27.600Z,36.17
2019-02-05T14:37:37.628Z,35.63
2019-02-05T14:46:44.596Z,24.05
2019-02-05T14:47:29.400Z,26.57
2019-02-05T14:50:02.510Z,26.40
2019-02-05T14:52:41.635Z,30.63
2019-02-05T14:55:13.417Z,23.50
2019-02-05T14:58:27.153Z,32.67
2019-02-05T15:01:00.394Z,22.57
2019-02-05T15:03:36.537Z,25.67
2019-02-05T15:07:03.850Z,20.13
2019-02-05T15:10:00.643Z,23.47
2019-02-05T15:12:38.694Z,23.33
2019-02-05T15:15:20.775Z,20.23
2019-02-05T15:17:54.120Z,16.32
2019-02-05T15:20:32.917Z,19.67
2019-02-05T15:23:06.781Z,24.37
2019-02-05T15:25:46.258Z,17.37
2019-02-05T15:28:22.160Z,27.37
2019-02-05T15:30:55.237Z,17.23
2019-02-05T15:34:11.322Z,19.43
2019-02-05T15:36:47.080Z,17.57
2019-02-05T15:39:25.982Z,18.23
2019-02-05T15:42:18.395Z,20.57
2019-02-05T15:44:54.599Z,25.70
2019-02-05T15:47:28.071Z,15.87
2019-02-05T15:50:06.187Z,27.93
2019-02-05T15:53:09.564Z,19.07
2019-02-05T15:55:49.049Z,19.17
2019-02-05T15:58:25.032Z,20.43
2019-02-05T16:01:42.909Z,17.90
2019-02-05T16:04:20.283Z,14.63
2019-02-05T16:06:58.154Z,22.73
2019-02-05T16:09:37.526Z,18.10
2019-02-05T16:12:15.059Z,18.97
2019-02-05T16:14:48.023Z,18.80
2019-02-05T16:28:18.190Z,18.43
2019-02-05T16:45:06.277Z,20.30
2019-02-05T16:51:28.885Z,23.53
2019-02-05T16:55:53.826Z,19.37
2019-02-05T16:58:04.779Z,17.73
2019-02-05T17:04:30.324Z,19.80
2019-02-05T17:07:41.392Z,20.73
2019-02-05T17:10:17.872Z,17.13
2019-02-05T17:13:13.998Z,18.87
2019-02-05T17:16:06.582Z,16.03
2019-02-05T17:18:39.544Z,18.47
2019-02-05T17:21:12.541Z,20.70
2019-02-05T17:24:04.134Z,17.53
2019-02-05T17:26:47.063Z,18.33
2019-02-05T17:29:20.827Z,19.23
2019-02-05T17:31:56.788Z,19.57
2019-02-05T17:38:03.773Z,19.90
2019-02-05T17:40:40.598Z,16.57
2019-02-05T17:43:22.294Z,19.10
2019-02-05T17:46:05.516Z,17.97
2019-02-05T17:48:45.971Z,21.63
2019-02-05T17:51:29.479Z,15.53
2019-02-05T17:54:03.243Z,14.47
2019-02-05T17:56:43.662Z,16.57
2019-02-05T17:59:16.920Z,16.00
2019-02-05T18:01:52.653Z,21.27
2019-02-05T18:04:25.700Z,20.00
2019-02-05T18:06:59.020Z,20.77
2019-02-05T18:09:32.379Z,24.47
2019-02-05T18:12:05.909Z,23.70
2019-02-05T18:14:38.907Z,22.73
2019-02-05T18:17:18.082Z,26.33
2019-02-05T18:19:51.864Z,18.93
2019-02-05T18:22:25.305Z,15.03
2019-02-05T18:25:03.242Z,15.90
2019-02-05T18:27:36.910Z,20.50
2019-02-05T18:30:17.732Z,12.97
2019-02-05T18:33:03.273Z,17.80
2019-02-05T18:35:29.709Z,16.13
2019-02-05T18:38:02.922Z,15.80
2019-02-05T18:40:35.864Z,14.20
2019-02-05T18:43:15.313Z,14.07
2019-02-05T18:45:49.972Z,17.53
2019-02-05T18:48:23.073Z,19.03
2019-02-05T18:50:56.613Z,14.57
2019-02-05T18:53:32.062Z,18.00
2019-02-05T18:56:10.975Z,13.73
2019-02-05T18:58:43.823Z,16.77
2019-02-05T19:01:40.350Z,18.10
2019-02-05T19:04:48.221Z,18.55
2019-02-05T19:07:23.594Z,15.43
2019-02-05T19:10:02.222Z,16.50
2019-02-05T19:12:37.032Z,14.07
2019-02-05T19:15:19.789Z,15.53
2019-02-05T19:18:14.759Z,16.00
2019-02-05T19:21:34.800Z,16.70
2019-02-05T19:23:51.541Z,16.32
2019-02-05T19:26:39.556Z,14.67
2019-02-05T19:29:18.855Z,15.50
2019-02-05T19:31:47.826Z,15.10
2019-02-05T19:34:22.312Z,15.25
2019-02-05T19:36:55.723Z,15.13
2019-02-05T19:39:28.565Z,20.67
2019-02-05T19:42:06.077Z,17.27
2019-02-05T19:44:42.753Z,16.32
2019-02-05T19:47:26.672Z,16.93
2019-02-05T19:50:01.579Z,17.47
2019-02-05T19:52:36.258Z,15.63
2019-02-05T19:55:15.674Z,14.43
2019-02-05T19:57:49.264Z,17.57
2019-02-05T20:00:23.775Z,11.35
2019-02-05T20:02:57.796Z,15.23
2019-02-05T20:06:28.590Z,20.23
2019-02-05T20:09:04.901Z,14.00
2019-02-05T20:11:38.132Z,12.43
2019-02-05T20:14:11.193Z,15.40
2019-02-05T20:18:12.708Z,13.93
2019-02-05T20:20:41.836Z,11.78
2019-02-05T20:23:14.652Z,14.53
2019-02-05T20:25:50.462Z,13.50
2019-02-05T20:28:24.721Z,13.08
2019-02-05T20:31:03.164Z,33.02
2019-02-05T20:33:36.447Z,12.63
2019-02-05T20:36:11.206Z,15.15
2019-02-05T20:38:45.003Z,13.90
2019-02-05T20:41:43.512Z,12.43
2019-02-05T20:44:19.056Z,10.70
2019-02-05T20:46:59.617Z,13.15
2019-02-05T20:49:32.919Z,16.00
2019-02-05T20:52:27.145Z,14.40
2019-02-05T20:55:07.515Z,13.98
2019-02-05T20:57:51.159Z,17.65
2019-02-05T21:00:24.785Z,15.38
2019-02-05T21:03:10.741Z,15.75
2019-02-05T21:05:44.228Z,12.35
2019-02-05T21:14:26.881Z,14.90
2019-02-05T21:17:03.390Z,13.10
2019-02-05T21:23:20.515Z,17.32
2019-02-05T21:26:25.984Z,13.88
2019-02-05T21:35:34.810Z,18.17
2019-02-05T21:50:19.552Z,15.18
2019-02-05T21:53:08.486Z,13.50
2019-02-05T21:55:54.330Z,23.90
2019-02-05T21:58:33.843Z,13.78
2019-02-05T22:01:07.636Z,14.78
2019-02-05T22:03:40.869Z,15.00
2019-02-05T22:06:26.944Z,21.77
2019-02-05T22:09:00.764Z,14.13
2019-02-05T22:11:34.467Z,19.02
2019-02-05T22:14:08.946Z,17.77
2019-02-05T22:17:20.728Z,18.75
2019-02-05T22:19:54.015Z,22.02
2019-02-05T22:22:27.221Z,14.93
2019-02-05T22:25:00.449Z,15.35
2019-02-05T22:27:37.090Z,13.08
2019-02-05T22:30:17.488Z,14.25
2019-02-05T22:32:50.996Z,11.93
2019-02-05T22:35:24.199Z,13.32
2019-02-05T22:37:57.591Z,25.40
2019-02-05T22:40:31.473Z,14.98
2019-02-05T22:43:06.384Z,12.90
2019-02-05T22:45:41.086Z,12.88
2019-02-05T22:48:14.549Z,13.00
2019-02-05T22:50:47.622Z,11.22
2019-02-05T22:53:21.093Z,16.00
2019-02-05T22:56:01.590Z,20.03
2019-02-05T22:58:34.688Z,16.95
2019-02-05T23:01:38.171Z,17.40
2019-02-05T23:04:50.881Z,15.60
2019-02-05T23:07:27.396Z,19.27
2019-02-05T23:10:36.057Z,14.90
2019-02-05T23:13:21.991Z,19.47
2019-02-05T23:16:01.674Z,17.57
2019-02-05T23:18:35.045Z,12.77
2019-02-05T23:21:08.580Z,14.63
2019-02-05T23:23:44.589Z,18.40
2019-02-05T23:26:24.799Z,16.33
2019-02-05T23:28:58.930Z,20.10
2019-02-05T23:31:32.644Z,16.40
2019-02-05T23:34:06.191Z,19.65
2019-02-05T23:36:39.990Z,22.00
2019-02-05T23:39:13.409Z,15.80
2019-02-05T23:41:49.081Z,20.20
2019-02-05T23:44:22.220Z,14.50
2019-02-05T23:46:56.254Z,16.03
2019-02-05T23:49:29.401Z,15.53
2019-02-05T23:52:02.550Z,17.17
2019-02-05T23:54:35.886Z,17.13
2019-02-05T23:57:11.608Z,19.03
2019-02-05T23:59:45.051Z,18.43
